Time;durP1;ratioP1;P1;durP2;ratioP2;P2;SDS_P1;SDS_P2;PMS_P1;PMS_P2;Temp;Humidity;BMP_temperature;BMP_pressure;BME280_temperature;BME280_humidity;BME280_pressure;Samples;Min_cycle;Max_cycle;Signal;HPM_P1;HPM_P2
2021/11/09 00:02:16;;;;;;;15.55;11.70;;;;;;;7.01;96.24;99104.44;5067003;28;20342;-58
2021/11/09 00:04:46;;;;;;;17.55;12.25;;;;;;;6.97;95.82;99097.81;5076254;28;20448;-59
2021/11/09 00:07:25;;;;;;;17.20;12.88;;;;;;;6.89;96.58;99116.47;5073234;28;20093;-58
2021/11/09 00:09:59;;;;;;;17.13;12.60;;;;;;;6.83;96.21;99116.91;5074498;28;20020;-59
2021/11/09 00:12:33;;;;;;;18.33;12.85;;;;;;;6.83;96.99;99118.69;5076375;28;20099;-59
2021/11/09 00:15:01;;;;;;;17.45;12.80;;;;;;;6.90;96.34;99114.75;5066910;28;20016;-58
2021/11/09 00:17:27;;;;;;;16.73;12.10;;;;;;;6.65;96.67;99056.19;5074680;28;20129;-59
2021/11/09 00:19:53;;;;;;;19.15;12.10;;;;;;;6.85;96.94;99106.47;5060812;28;20665;-59
2021/11/09 00:22:20;;;;;;;15.65;12.02;;;;;;;6.80;97.45;99093.06;5075938;28;20049;-58
2021/11/09 00:24:46;;;;;;;18.00;12.43;;;;;;;6.81;96.85;99094.69;5068624;28;20125;-59
2021/11/09 00:27:11;;;;;;;19.00;12.88;;;;;;;6.79;96.83;99099.97;5072654;28;20486;-58
2021/11/09 00:29:36;;;;;;;17.27;11.38;;;;;;;6.56;96.10;99041.34;5064865;28;20028;-59
2021/11/09 00:32:04;;;;;;;15.80;12.52;;;;;;;6.59;96.22;99052.28;5077907;28;20369;-58
2021/11/09 00:34:29;;;;;;;18.45;12.65;;;;;;;6.67;96.26;99059.50;5063724;28;20389;-58
2021/11/09 00:36:55;;;;;;;16.77;12.13;;;;;;;6.67;96.34;99068.06;5057588;28;20055;-59
2021/11/09 00:39:20;;;;;;;15.88;11.52;;;;;;;6.76;96.52;99097.59;5075564;28;20034;-58
2021/11/09 00:41:46;;;;;;;17.13;11.65;;;;;;;6.78;96.28;99098.31;5071978;28;20538;-58
2021/11/09 00:44:12;;;;;;;17.10;11.90;;;;;;;6.45;96.86;99042.91;5078820;28;20506;-58
2021/11/09 00:46:38;;;;;;;15.10;11.05;;;;;;;6.73;96.59;99100.41;5069583;28;20479;-58
2021/11/09 00:49:04;;;;;;;15.82;11.40;;;;;;;6.74;95.97;99086.56;5076978;28;20554;-56
2021/11/09 00:51:30;;;;;;;15.40;11.27;;;;;;;6.78;96.41;99092.34;5068175;28;20031;-58
2021/11/09 00:53:55;;;;;;;14.60;11.18;;;;;;;6.79;95.80;99078.47;5073631;28;20032;-58
2021/11/09 00:56:21;;;;;;;14.98;11.52;;;;;;;6.81;95.43;99084.34;5075241;28;20470;-57
2021/11/09 00:58:46;;;;;;;15.07;10.52;;;;;;;6.82;95.02;99084.25;5073612;28;20028;-59
2021/11/09 01:01:12;;;;;;;14.95;10.60;;;;;;;6.73;95.24;99072.81;5073215;28;20024;-58
2021/11/09 01:03:37;;;;;;;16.42;11.18;;;;;;;6.86;95.23;99088.28;5068015;28;20024;-58
2021/11/09 01:06:03;;;;;;;16.00;11.18;;;;;;;6.72;96.09;99068.56;5066122;28;20106;-58
2021/11/09 01:08:30;;;;;;;14.85;11.00;;;;;;;6.81;95.61;99074.00;5069483;28;20036;-59
2021/11/09 01:10:57;;;;;;;18.40;11.23;;;;;;;6.86;95.68;99077.09;5069411;28;20643;-57
2021/11/09 01:13:24;;;;;;;14.25;10.55;;;;;;;6.52;95.17;99038.97;5072716;28;20428;-58
2021/11/09 01:15:52;;;;;;;16.13;11.40;;;;;;;6.77;95.62;99070.00;5068165;28;20107;-58
2021/11/09 01:18:21;;;;;;;19.92;11.43;;;;;;;6.80;95.95;99067.19;5071735;28;20032;-58
2021/11/09 01:20:46;;;;;;;13.82;10.27;;;;;;;6.82;95.80;99066.16;5068612;28;20040;-58
2021/11/09 01:23:12;;;;;;;16.08;10.18;;;;;;;6.79;94.87;99073.28;5072058;28;20035;-58
2021/11/09 01:25:39;;;;;;;15.90;10.18;;;;;;;6.71;94.45;99069.50;5069972;28;21356;-59
2021/11/09 01:28:05;;;;;;;14.10;10.20;;;;;;;6.77;94.06;99077.75;5075725;28;20031;-57
2021/11/09 01:30:30;;;;;;;14.55;9.63;;;;;;;6.76;93.40;99053.66;5053573;28;20366;-58
2021/11/09 01:32:56;;;;;;;13.90;9.93;;;;;;;6.77;94.05;99059.66;5072545;28;20482;-58
2021/11/09 01:35:22;;;;;;;13.93;9.80;;;;;;;6.78;94.30;99069.88;5070473;28;20031;-58
2021/11/09 01:37:48;;;;;;;14.43;9.45;;;;;;;6.71;94.52;99056.56;5055001;28;20039;-58
2021/11/09 01:40:14;;;;;;;13.07;9.55;;;;;;;6.73;94.03;99066.81;5068200;28;20021;-58
2021/11/09 01:42:40;;;;;;;13.55;9.35;;;;;;;6.78;93.79;99061.31;5071858;28;20055;-58
2021/11/09 01:45:09;;;;;;;15.13;9.35;;;;;;;6.78;93.11;99058.75;5064445;28;20067;-58
2021/11/09 01:47:34;;;;;;;14.02;10.00;;;;;;;6.76;92.97;99037.34;5076713;28;20571;-58
2021/11/09 01:50:00;;;;;;;12.25;8.48;;;;;;;6.76;92.67;99034.75;5073718;28;20098;-58
2021/11/09 01:52:26;;;;;;;11.73;8.15;;;;;;;6.78;92.11;99046.63;5072393;28;20043;-58
2021/11/09 01:54:52;;;;;;;12.82;8.52;;;;;;;6.79;90.91;99026.75;5071588;28;20039;-56
2021/11/09 01:57:18;;;;;;;14.05;8.85;;;;;;;6.93;90.40;99042.09;5065544;28;20521;-58
2021/11/09 01:59:43;;;;;;;10.25;7.28;;;;;;;6.87;90.65;99034.81;5072266;28;20095;-59
2021/11/09 02:02:09;;;;;;;14.13;8.00;;;;;;;6.96;90.18;99038.50;5064602;28;20093;-58
2021/11/09 02:04:34;;;;;;;12.98;7.82;;;;;;;6.89;90.69;99036.34;5073450;28;20077;-58
2021/11/09 02:07:00;;;;;;;12.23;8.52;;;;;;;6.85;90.32;99032.34;5071349;28;20028;-59
2021/11/09 02:09:25;;;;;;;12.05;8.63;;;;;;;6.59;90.03;98968.75;5071542;28;20441;-59
2021/11/09 02:11:51;;;;;;;13.55;8.45;;;;;;;6.97;89.71;99029.78;5075853;28;20039;-56
2021/11/09 02:14:17;;;;;;;14.05;8.88;;;;;;;6.67;88.91;98989.72;5069275;28;20028;-58
2021/11/09 02:16:42;;;;;;;14.32;8.00;;;;;;;6.82;89.05;99009.28;5074982;28;20158;-58
2021/11/09 02:19:08;;;;;;;12.63;7.40;;;;;;;6.93;89.23;99027.41;5066784;28;20794;-58
2021/11/09 02:21:33;;;;;;;12.80;8.20;;;;;;;7.01;88.56;99026.88;5074088;28;20025;-58
2021/11/09 02:23:59;;;;;;;11.85;8.00;;;;;;;6.89;88.40;99014.84;5071233;28;20093;-58
2021/11/09 02:26:25;;;;;;;13.48;7.38;;;;;;;7.04;88.24;99031.81;5068136;28;20089;-58
2021/11/09 02:28:53;;;;;;;14.55;7.93;;;;;;;7.02;88.49;99036.28;5074554;28;20815;-59
2021/11/09 02:31:20;;;;;;;10.85;7.72;;;;;;;6.98;88.58;99031.44;5056742;28;20119;-57
2021/11/09 02:33:46;;;;;;;13.27;7.95;;;;;;;6.93;88.87;99037.75;5065830;28;20745;-58
2021/11/09 02:36:11;;;;;;;12.57;8.00;;;;;;;6.90;89.11;99026.84;5071342;28;20039;-58
2021/11/09 02:38:37;;;;;;;13.13;7.78;;;;;;;6.91;88.89;99029.28;5057354;28;20024;-58
2021/11/09 02:41:03;;;;;;;12.15;8.05;;;;;;;6.63;89.23;98993.47;5063460;28;20035;-58
2021/11/09 02:43:31;;;;;;;12.23;8.18;;;;;;;6.88;88.91;99028.69;5074473;28;20617;-58
2021/11/09 02:48:53;;;;;;;11.82;7.47;;;;;;;6.70;88.35;98997.25;5077303;28;20104;-58
2021/11/09 02:51:27;;;;;;;12.45;7.95;;;;;;;6.88;88.71;99028.69;5076157;28;20020;-58
2021/11/09 02:54:08;;;;;;;14.13;8.23;;;;;;;6.80;88.36;99018.91;5075230;28;20024;-58
2021/11/09 02:56:40;;;;;;;10.70;6.85;;;;;;;6.82;87.61;99005.88;5074786;28;20608;-58
2021/11/09 02:59:17;;;;;;;12.40;7.28;;;;;;;6.56;88.21;98966.41;5073433;28;20032;-59
2021/11/09 03:02:13;;;;;;;11.05;6.82;;;;;;;6.88;87.78;99019.19;5074895;28;20066;-58
2021/11/09 03:07:03;;;;;;;10.95;7.32;;;;;;;6.59;89.20;98992.88;5073443;28;20032;-58
2021/11/09 03:12:09;;;;;;;12.00;7.55;;;;;;;6.78;88.97;99035.47;5073286;28;20391;-57
2021/11/09 03:14:34;;;;;;;11.00;7.30;;;;;;;6.81;89.10;99038.66;5072733;28;20048;-59
2021/11/09 03:17:05;;;;;;;11.02;7.95;;;;;;;6.67;89.04;99023.31;5104235;27;20023;-58
2021/11/09 03:19:40;;;;;;;10.48;6.82;;;;;;;6.76;88.38;99045.09;5072316;28;20525;-58
2021/11/09 03:47:07;;;;;;;10.60;6.18;;;;;;;6.54;87.75;99049.19;5050840;28;20313;-59
2021/11/09 03:49:35;;;;;;;9.57;6.32;;;;;;;6.53;88.03;99053.56;5055586;28;20040;-58
2021/11/09 03:52:06;;;;;;;10.82;7.30;;;;;;;6.29;87.85;98999.25;5072300;28;20028;-59
2021/11/09 03:54:32;;;;;;;12.00;6.65;;;;;;;6.50;88.08;99047.78;5074267;28;20470;-58
2021/11/09 03:57:04;;;;;;;10.05;7.07;;;;;;;6.55;88.08;99061.16;5073675;28;20030;-58
2021/11/09 04:04:32;;;;;;;12.38;6.57;;;;;;;6.55;88.50;99066.34;5073429;28;20086;-58
2021/11/09 04:07:05;;;;;;;11.05;6.72;;;;;;;6.60;89.02;99060.88;5074280;28;20271;-59
2021/11/09 04:14:50;;;;;;;14.52;7.47;;;;;;;6.49;89.12;99082.28;5063913;28;20051;-59
2021/11/09 04:25:20;;;;;;;12.02;6.38;;;;;;;6.46;89.19;99077.31;5071202;28;20032;-58
2021/11/09 04:31:12;;;;;;;9.60;6.40;;;;;;;6.46;89.93;99095.41;5078628;28;20032;-58
2021/11/09 04:36:33;;;;;;;12.43;7.43;;;;;;;6.31;89.62;99084.38;5076230;28;20044;-59
2021/11/09 05:10:57;;;;;;;9.77;6.63;;;;;;;6.24;90.10;99127.91;5070585;28;20054;-57
2021/11/09 05:13:24;;;;;;;10.82;6.97;;;;;;;6.25;90.24;99131.31;5072779;28;20028;-58
2021/11/09 05:15:50;;;;;;;12.15;6.75;;;;;;;5.89;89.95;99086.34;5069033;28;20037;-58
2021/11/09 05:18:15;;;;;;;10.65;6.40;;;;;;;6.17;90.45;99144.75;5069887;28;20407;-58
2021/11/09 05:20:41;;;;;;;11.30;6.68;;;;;;;6.12;90.23;99131.31;5068747;28;20055;-58
2021/11/09 05:23:07;;;;;;;9.05;5.47;;;;;;;6.17;90.39;99147.31;5063791;28;20070;-58
2021/11/09 05:25:33;;;;;;;10.55;6.85;;;;;;;6.19;90.94;99154.94;5069709;28;20109;-58
2021/11/09 05:27:58;;;;;;;10.90;7.03;;;;;;;6.11;90.39;99161.44;5068708;28;20028;-58
2021/11/09 05:30:24;;;;;;;10.65;6.10;;;;;;;6.12;90.64;99160.53;5076012;28;20425;-59
2021/11/09 05:32:52;;;;;;;10.57;6.85;;;;;;;6.15;90.25;99169.81;5075865;28;20052;-57
2021/11/09 05:35:18;;;;;;;9.70;6.15;;;;;;;6.13;89.74;99169.09;5065491;28;20039;-59
2021/11/09 05:37:46;;;;;;;9.90;6.28;;;;;;;6.15;89.77;99167.22;5075686;28;20081;-59
2021/11/09 05:40:12;;;;;;;10.77;6.35;;;;;;;6.15;89.91;99170.66;5069190;28;20531;-57
2021/11/09 05:42:38;;;;;;;10.95;6.57;;;;;;;6.06;89.41;99173.00;5069316;28;20077;-58
2021/11/09 05:45:06;;;;;;;14.18;6.28;;;;;;;6.14;89.98;99184.47;5063368;28;20510;-58
2021/11/09 05:47:32;;;;;;;10.68;6.03;;;;;;;5.80;88.96;99136.00;5073943;28;20483;-57
2021/11/09 05:49:57;;;;;;;11.98;6.30;;;;;;;5.96;89.36;99159.91;5064791;28;20028;-58
2021/11/09 05:52:23;;;;;;;11.15;6.40;;;;;;;6.10;89.12;99182.22;5068775;28;20881;-58
2021/11/09 05:54:48;;;;;;;10.13;6.20;;;;;;;6.03;88.39;99171.47;5077733;28;20040;-58
2021/11/09 05:57:14;;;;;;;10.73;6.47;;;;;;;5.80;88.77;99129.06;5073239;28;20064;-58
2021/11/09 05:59:40;;;;;;;9.82;5.32;;;;;;;5.87;88.54;99163.06;5069434;28;20028;-58
2021/11/09 06:02:06;;;;;;;9.98;6.10;;;;;;;6.07;89.37;99195.31;5056788;28;20047;-58
2021/11/09 06:04:32;;;;;;;9.27;5.97;;;;;;;5.95;88.64;99191.75;5071902;28;20039;-58
2021/11/09 06:06:57;;;;;;;10.10;5.90;;;;;;;5.99;88.67;99206.16;5066849;28;20063;-58
2021/11/09 06:09:23;;;;;;;10.00;6.13;;;;;;;5.73;89.63;99174.28;5051044;28;20028;-56
2021/11/09 06:11:48;;;;;;;10.88;5.60;;;;;;;5.90;89.65;99210.16;5066679;28;20029;-58
2021/11/09 06:14:13;;;;;;;10.15;5.72;;;;;;;5.61;89.90;99170.75;5073370;28;20028;-58
2021/11/09 06:16:39;;;;;;;9.38;5.72;;;;;;;5.83;89.52;99226.13;5072476;28;20811;-58
2021/11/09 06:19:05;;;;;;;9.93;5.60;;;;;;;5.82;89.37;99238.19;5074582;28;20032;-58
2021/11/09 06:21:31;;;;;;;11.77;6.30;;;;;;;5.54;89.01;99190.94;5071483;28;20028;-58
2021/11/09 06:23:57;;;;;;;10.38;6.15;;;;;;;5.78;88.80;99234.16;5062023;28;20016;-58
2021/11/09 06:26:23;;;;;;;10.90;5.80;;;;;;;5.85;88.59;99239.75;5073570;28;20038;-58
2021/11/09 06:28:49;;;;;;;9.57;5.60;;;;;;;5.83;87.75;99239.03;5075549;28;20705;-58
2021/11/09 06:31:14;;;;;;;8.95;5.45;;;;;;;5.93;87.44;99248.66;5062147;28;20647;-58
2021/11/09 06:33:40;;;;;;;10.48;5.53;;;;;;;5.85;87.40;99253.47;5072043;28;20031;-59
2021/11/09 06:36:05;;;;;;;10.30;6.18;;;;;;;5.88;87.68;99266.19;5068363;28;20471;-58
2021/11/09 06:38:31;;;;;;;9.85;5.50;;;;;;;5.64;88.04;99237.66;5072123;28;20440;-57
2021/11/09 06:40:56;;;;;;;9.63;5.40;;;;;;;5.92;87.54;99272.81;5063155;28;20024;-58
2021/11/09 06:43:22;;;;;;;9.95;5.40;;;;;;;5.88;87.29;99271.38;5074064;28;20609;-58
2021/11/09 06:45:47;;;;;;;8.48;4.40;;;;;;;5.97;87.01;99278.53;5070387;28;20028;-58
2021/11/09 06:48:13;;;;;;;7.88;4.88;;;;;;;5.86;87.44;99267.22;5076979;28;20028;-59
2021/11/09 06:50:38;;;;;;;8.55;5.25;;;;;;;5.77;87.64;99263.50;5078591;28;20027;-58
2021/11/09 06:53:04;;;;;;;7.68;4.93;;;;;;;5.88;87.43;99284.28;5068133;28;20275;-58
2021/11/09 06:55:34;;;;;;;8.80;4.80;;;;;;;5.96;87.04;99286.38;5067929;28;20491;-59
2021/11/09 06:57:59;;;;;;;8.75;4.80;;;;;;;6.03;87.12;99287.66;5070786;28;20122;-58
2021/11/09 07:00:25;;;;;;;9.50;4.78;;;;;;;5.91;86.99;99294.41;5071855;28;20106;-58
2021/11/09 07:02:51;;;;;;;8.13;4.55;;;;;;;6.01;86.94;99297.25;5069730;28;20031;-58
2021/11/09 07:05:22;;;;;;;8.63;5.00;;;;;;;6.01;85.81;99306.75;5064475;28;20032;-59
2021/11/09 07:07:47;;;;;;;7.53;4.45;;;;;;;5.97;85.80;99299.19;5067390;28;20025;-58
2021/11/09 07:10:13;;;;;;;8.80;4.22;;;;;;;6.03;85.41;99317.81;5061462;28;20070;-58
2021/11/09 07:12:40;;;;;;;8.85;4.50;;;;;;;6.05;85.04;99316.78;5054813;28;20028;-58
2021/11/09 07:15:06;;;;;;;8.85;4.38;;;;;;;6.03;84.33;99310.88;5066375;28;20020;-58
2021/11/09 07:17:32;;;;;;;7.85;4.05;;;;;;;6.08;84.67;99318.34;5070459;28;20035;-58
2021/11/09 07:19:58;;;;;;;7.32;4.30;;;;;;;5.89;84.72;99293.66;5071450;28;20419;-59
2021/11/09 07:22:24;;;;;;;10.35;4.70;;;;;;;6.03;85.31;99328.13;5068798;28;20036;-58
2021/11/09 07:24:49;;;;;;;8.27;4.60;;;;;;;6.05;85.18;99321.94;5074469;28;20112;-59
2021/11/09 07:27:16;;;;;;;8.60;4.35;;;;;;;6.10;84.64;99337.13;5071791;28;20123;-58
2021/11/09 07:29:47;;;;;;;9.32;4.60;;;;;;;5.86;85.87;99298.19;5070205;28;20043;-58
2021/11/09 07:32:12;;;;;;;8.73;4.78;;;;;;;5.92;85.59;99339.94;5053127;28;20391;-59
2021/11/09 07:34:38;;;;;;;7.40;4.15;;;;;;;6.00;86.20;99344.63;5071149;28;20031;-58
2021/11/09 07:37:04;;;;;;;8.63;4.70;;;;;;;5.99;85.84;99355.03;5073547;28;20694;-58
2021/11/09 07:39:29;;;;;;;7.53;4.45;;;;;;;5.90;85.61;99315.97;5068854;28;20016;-59
2021/11/09 07:41:55;;;;;;;9.30;5.10;;;;;;;6.03;85.35;99356.53;5074757;28;20027;-59
2021/11/09 07:44:21;;;;;;;8.63;4.32;;;;;;;6.07;86.18;99363.16;5069394;28;20066;-58
2021/11/09 07:46:46;;;;;;;7.72;4.43;;;;;;;6.06;85.22;99362.34;5076067;28;20047;-58
2021/11/09 07:49:11;;;;;;;7.82;4.55;;;;;;;6.10;85.89;99362.97;5072090;28;20016;-58
2021/11/09 07:51:37;;;;;;;9.30;4.93;;;;;;;6.04;85.68;99365.91;5075083;28;20295;-58
2021/11/09 07:54:05;;;;;;;7.57;5.18;;;;;;;6.07;85.60;99370.91;5072539;28;20020;-60
2021/11/09 07:56:36;;;;;;;8.48;4.47;;;;;;;6.08;85.86;99382.88;5070959;28;20070;-59
2021/11/09 08:01:46;;;;;;;7.82;4.88;;;;;;;6.21;84.71;99395.84;5073780;28;20040;-59
2021/11/09 08:04:14;;;;;;;7.97;4.47;;;;;;;5.93;85.09;99348.50;5082516;28;20024;-58
2021/11/09 08:06:45;;;;;;;8.20;4.70;;;;;;;5.89;85.28;99345.28;5074066;28;20029;-58
2021/11/09 08:09:31;;;;;;;8.40;4.47;;;;;;;6.08;85.83;99377.72;5074401;28;20028;-58
2021/11/09 08:11:58;;;;;;;8.32;4.60;;;;;;;6.12;86.28;99387.75;5068463;28;20032;-58
2021/11/09 08:14:25;;;;;;;8.73;4.65;;;;;;;5.86;85.42;99345.50;5071658;28;20032;-58
2021/11/09 08:16:50;;;;;;;8.70;5.13;;;;;;;5.96;84.97;99349.16;5064936;28;20016;-58
2021/11/09 08:19:17;;;;;;;8.30;4.60;;;;;;;6.22;84.47;99390.56;5066467;28;20399;-58
2021/11/09 08:21:43;;;;;;;8.50;4.30;;;;;;;6.23;82.97;99392.22;5077054;28;20094;-58
2021/11/09 08:24:09;;;;;;;7.25;4.53;;;;;;;6.26;82.71;99393.78;5080531;28;20616;-58
2021/11/09 08:26:35;;;;;;;7.68;4.38;;;;;;;6.26;82.47;99399.78;5075203;28;20016;-58
2021/11/09 08:29:05;;;;;;;7.00;3.95;;;;;;;6.37;81.95;99416.34;5079076;28;20673;-59
2021/11/09 08:31:33;;;;;;;8.43;4.20;;;;;;;6.13;82.25;99371.34;5072431;28;20027;-58
2021/11/09 08:34:01;;;;;;;8.07;4.30;;;;;;;6.39;81.60;99417.06;5076665;28;20423;-59
2021/11/09 08:36:29;;;;;;;7.47;3.88;;;;;;;6.23;80.94;99391.41;5071468;28;20028;-59
2021/11/09 08:39:06;;;;;;;8.75;4.28;;;;;;;6.41;80.81;99425.56;5067330;28;20103;-58
2021/11/09 08:41:40;;;;;;;7.25;4.03;;;;;;;6.52;81.33;99430.88;5074092;28;20236;-59
2021/11/09 08:44:09;;;;;;;7.75;3.80;;;;;;;6.48;81.34;99434.56;5072140;28;20562;-59
2021/11/09 08:46:44;;;;;;;7.65;3.95;;;;;;;6.64;80.60;99447.34;5069773;28;20020;-58
2021/11/09 08:49:12;;;;;;;6.88;3.92;;;;;;;6.69;80.61;99446.09;5071549;28;20024;-58
2021/11/09 08:51:39;;;;;;;7.35;4.25;;;;;;;6.70;80.38;99444.38;5072910;28;20723;-59
2021/11/09 08:54:21;;;;;;;10.77;4.47;;;;;;;6.66;81.13;99440.31;5073242;28;20675;-58
2021/11/09 09:04:42;;;;;;;8.25;4.18;;;;;;;6.50;82.11;99415.47;5071153;28;20043;-59
2021/11/09 09:07:08;;;;;;;7.47;4.50;;;;;;;6.80;81.79;99468.66;5073253;28;20408;-59
2021/11/09 09:09:34;;;;;;;8.82;4.50;;;;;;;6.84;83.24;99475.28;5076052;28;20039;-58
2021/11/09 09:11:59;;;;;;;8.10;4.00;;;;;;;6.64;82.26;99453.31;5073550;28;20020;-59
2021/11/09 09:14:26;;;;;;;6.93;4.15;;;;;;;6.83;82.81;99484.00;5065907;28;20024;-59
2021/11/09 09:16:53;;;;;;;9.07;4.60;;;;;;;6.81;82.68;99474.66;5065425;28;20036;-58
2021/11/09 09:19:24;;;;;;;9.25;3.92;;;;;;;6.45;82.60;99412.34;5070935;28;20046;-58
2021/11/09 09:22:12;;;;;;;8.50;3.92;;;;;;;6.89;82.05;99488.75;5071039;28;20603;-59
2021/11/09 09:56:53;;;;;;;7.82;3.75;;;;;;;7.29;78.07;99493.91;5075066;28;20131;-59
2021/11/09 09:59:21;;;;;;;9.77;3.65;;;;;;;7.62;78.17;99523.63;5070555;28;20024;-59
2021/11/09 10:02:24;;;;;;;9.27;3.75;;;;;;;7.69;77.45;99508.50;5063973;28;20450;-58
2021/11/09 10:04:54;;;;;;;8.18;3.92;;;;;;;7.79;77.36;99519.88;5067981;28;21547;-59
2021/11/09 10:07:34;;;;;;;9.57;5.88;;;;;;;7.88;77.64;99514.09;5065864;28;20034;-59
2021/11/09 10:10:10;;;;;;;12.48;6.30;;;;;;;7.91;77.62;99512.22;5070568;28;20040;-59
2021/11/09 10:12:37;;;;;;;8.77;4.15;;;;;;;7.77;76.99;99480.31;5073607;28;20471;-59
2021/11/09 10:15:30;;;;;;;8.48;4.28;;;;;;;8.07;77.50;99520.59;5068754;28;20020;-59
2021/11/09 10:18:02;;;;;;;10.57;4.78;;;;;;;8.24;76.86;99519.41;5076621;28;20092;-59
2021/11/09 10:20:33;;;;;;;7.45;4.43;;;;;;;8.14;75.38;99475.19;5060451;28;20044;-59
2021/11/09 10:23:09;;;;;;;9.10;4.75;;;;;;;8.61;74.54;99514.22;5079225;28;20435;-59
2021/11/09 10:25:36;;;;;;;11.93;4.68;;;;;;;8.77;73.93;99511.38;5062443;28;21175;-58
2021/11/09 10:28:08;;;;;;;10.05;4.68;;;;;;;8.92;71.44;99476.53;5066760;28;20020;-60
2021/11/09 10:30:36;;;;;;;9.80;4.97;;;;;;;9.20;72.36;99508.22;5073154;28;20028;-59
2021/11/09 10:33:02;;;;;;;10.32;4.85;;;;;;;9.27;71.61;99512.00;5063523;28;20021;-59
2021/11/09 10:35:28;;;;;;;14.25;5.53;;;;;;;9.38;71.06;99499.06;5070361;28;20032;-59
2021/11/09 10:37:56;;;;;;;15.40;7.05;;;;;;;9.42;71.18;99495.28;5073871;28;20398;-60
2021/11/09 10:40:25;;;;;;;11.38;5.78;;;;;;;8.99;70.75;99420.66;5071609;28;20036;-59
2021/11/09 10:42:53;;;;;;;9.35;5.90;;;;;;;9.58;70.32;99489.78;5103233;27;20024;-59
2021/11/09 10:45:23;;;;;;;10.77;5.93;;;;;;;9.56;70.35;99485.63;5105580;27;20056;-59
2021/11/09 10:47:52;;;;;;;9.43;5.22;;;;;;;9.44;70.81;99471.81;5067171;28;20012;-59
2021/11/09 10:50:26;;;;;;;10.57;5.40;;;;;;;9.58;71.42;99487.19;5072291;28;20028;-59
2021/11/09 10:53:16;;;;;;;9.70;5.68;;;;;;;9.66;70.84;99481.38;5063934;28;20028;-56
2021/11/09 10:56:30;;;;;;;11.85;6.05;;;;;;;9.69;70.70;99488.09;5071549;28;20044;-60
2021/11/09 11:04:40;;;;;;;9.10;5.65;;;;;;;9.71;70.30;99481.03;5076929;28;20172;-60
2021/11/09 11:07:15;;;;;;;9.63;5.72;;;;;;;9.74;70.16;99479.00;5067638;28;20055;-60
2021/11/09 11:09:42;;;;;;;10.38;5.80;;;;;;;9.80;70.17;99482.91;5072749;28;20052;-58
2021/11/09 11:12:11;;;;;;;9.50;5.55;;;;;;;9.66;70.03;99457.22;5075808;28;20501;-60
2021/11/09 11:14:42;;;;;;;8.60;5.20;;;;;;;9.81;69.58;99469.81;5069230;28;20052;-59
2021/11/09 11:17:13;;;;;;;9.00;5.70;;;;;;;9.85;69.88;99472.19;5072811;28;20036;-59
2021/11/09 11:19:53;;;;;;;10.00;5.38;;;;;;;9.87;69.23;99472.88;5076986;28;20016;-60
2021/11/09 11:22:22;;;;;;;10.63;5.85;;;;;;;9.90;69.18;99463.09;5065006;28;20028;-59
2021/11/09 11:24:48;;;;;;;10.13;5.10;;;;;;;9.97;69.93;99473.84;5101089;27;20274;-59
2021/11/09 11:27:14;;;;;;;9.48;5.53;;;;;;;9.96;69.03;99467.78;5072255;28;20029;-60
2021/11/09 11:29:41;;;;;;;9.38;5.35;;;;;;;10.00;68.58;99473.56;5065334;28;20024;-60
2021/11/09 11:32:08;;;;;;;10.25;5.65;;;;;;;9.98;69.06;99480.66;5056336;28;20677;-60
2021/11/09 11:34:34;;;;;;;9.60;6.18;;;;;;;9.82;68.99;99447.28;5068919;28;20620;-59
2021/11/09 11:37:00;;;;;;;11.90;5.82;;;;;;;10.10;69.21;99473.69;5071377;28;20020;-59
2021/11/09 11:39:28;;;;;;;9.18;4.97;;;;;;;10.15;68.45;99469.78;5076488;28;20479;-59
2021/11/09 11:42:00;;;;;;;10.25;5.47;;;;;;;10.26;68.08;99481.94;5108538;27;20063;-59
2021/11/09 11:44:28;;;;;;;11.90;6.40;;;;;;;10.05;67.40;99437.66;5074468;28;20032;-59
2021/11/09 11:47:10;;;;;;;13.73;6.10;;;;;;;10.36;68.25;99476.84;5076222;28;20114;-59
2021/11/09 11:49:42;;;;;;;10.13;6.47;;;;;;;10.10;68.29;99429.53;5073845;28;20495;-59
2021/11/09 11:52:15;;;;;;;12.27;7.20;;;;;;;10.36;68.72;99477.69;5068214;28;20854;-59
2021/11/09 11:54:48;;;;;;;10.40;6.65;;;;;;;10.22;68.74;99446.72;5073377;28;20025;-59
2021/11/09 11:57:41;;;;;;;12.63;6.82;;;;;;;10.45;68.08;99480.50;5078658;28;20114;-59
2021/11/09 12:00:44;;;;;;;11.52;6.80;;;;;;;10.48;68.22;99472.47;5074871;28;20099;-59
2021/11/09 12:03:18;;;;;;;9.50;6.20;;;;;;;10.40;68.09;99475.66;5076749;28;20028;-59
2021/11/09 12:05:46;;;;;;;11.48;6.95;;;;;;;10.36;68.52;99464.69;5072078;28;20377;-59
2021/11/09 12:08:14;;;;;;;11.00;6.65;;;;;;;10.09;69.04;99426.06;5070415;28;20028;-59
2021/11/09 12:10:52;;;;;;;13.07;6.82;;;;;;;10.30;68.04;99448.72;5071107;28;20021;-59
2021/11/09 12:13:20;;;;;;;11.05;6.93;;;;;;;10.47;68.15;99483.81;5068035;28;20024;-59
2021/11/09 12:15:48;;;;;;;9.75;6.85;;;;;;;10.44;67.87;99479.69;5073009;28;20046;-59
2021/11/09 12:18:32;;;;;;;10.52;7.03;;;;;;;10.52;67.51;99489.47;5064892;28;20036;-59
2021/11/09 12:21:30;;;;;;;11.25;6.75;;;;;;;10.49;67.60;99487.09;5075272;28;20356;-59
2021/11/09 12:24:14;;;;;;;10.43;6.68;;;;;;;10.51;67.71;99485.19;5073411;28;20474;-59
2021/11/09 12:26:55;;;;;;;11.60;7.03;;;;;;;10.53;67.90;99486.75;5062590;28;20024;-59
2021/11/09 12:29:35;;;;;;;10.38;6.93;;;;;;;10.54;67.46;99497.97;5074883;28;20478;-59
2021/11/09 12:32:24;;;;;;;9.68;6.25;;;;;;;10.56;67.77;99498.66;5068004;28;20105;-60
2021/11/09 12:35:14;;;;;;;12.80;6.65;;;;;;;10.53;67.53;99501.50;5058145;28;20043;-59
2021/11/09 12:38:02;;;;;;;10.60;6.53;;;;;;;10.49;67.57;99505.31;5072512;28;20024;-59
2021/11/09 12:40:34;;;;;;;10.98;6.90;;;;;;;10.27;67.33;99478.38;5069392;28;20043;-59
2021/11/09 12:43:14;;;;;;;12.50;6.43;;;;;;;10.22;67.30;99466.69;5063960;28;20036;-61
2021/11/09 12:45:46;;;;;;;10.57;6.30;;;;;;;10.28;66.85;99481.81;5074641;28;20066;-61
2021/11/09 12:48:17;;;;;;;12.00;6.45;;;;;;;10.46;66.61;99508.13;5058788;28;20028;-61
2021/11/09 12:50:51;;;;;;;11.45;6.85;;;;;;;10.52;66.50;99529.28;5074721;28;20790;-61
2021/11/09 12:53:21;;;;;;;10.10;5.95;;;;;;;10.52;66.63;99513.69;5069047;28;20055;-61
2021/11/09 12:55:55;;;;;;;12.27;5.65;;;;;;;10.58;65.86;99505.38;5077791;28;20031;-61
2021/11/09 12:58:23;;;;;;;12.32;6.40;;;;;;;10.38;65.39;99480.16;5055144;28;20024;-61
2021/11/09 13:10:00;;;;;;;9.98;6.20;;;;;;;10.76;65.64;99542.09;5074116;28;20054;-61
2021/11/09 13:12:30;;;;;;;9.18;5.88;;;;;;;10.90;63.88;99535.81;5070566;28;20029;-61
2021/11/09 13:15:01;;;;;;;10.05;6.18;;;;;;;10.96;64.54;99534.47;5064891;28;20086;-61
2021/11/09 13:17:58;;;;;;;10.55;6.22;;;;;;;10.76;64.74;99507.47;5075250;28;20534;-61
2021/11/09 13:22:59;;;;;;;11.73;6.50;;;;;;;10.91;64.46;99547.03;5076911;28;20035;-61
2021/11/09 13:25:30;;;;;;;10.50;6.53;;;;;;;10.93;65.36;99543.38;5075604;28;20609;-61
2021/11/09 13:27:56;;;;;;;9.70;6.78;;;;;;;10.86;65.01;99531.81;5075116;28;20028;-59
2021/11/09 13:30:24;;;;;;;9.45;6.03;;;;;;;10.93;64.20;99527.75;5073055;28;20039;-60
2021/11/09 13:32:52;;;;;;;9.82;6.75;;;;;;;10.88;65.25;99536.84;5083104;28;20035;-60
2021/11/09 13:35:23;;;;;;;11.70;6.80;;;;;;;10.90;65.58;99548.81;5065547;28;20024;-61
2021/11/09 13:37:49;;;;;;;11.45;6.97;;;;;;;10.83;66.20;99550.25;5052097;28;20567;-60
2021/11/09 13:40:16;;;;;;;10.25;7.28;;;;;;;10.77;67.23;99545.56;5070154;28;20023;-61
2021/11/09 13:42:42;;;;;;;13.10;8.07;;;;;;;10.75;67.81;99547.44;5071909;28;20029;-60
2021/11/09 13:45:17;;;;;;;14.77;9.75;;;;;;;10.52;68.76;99513.69;5077924;28;20035;-60
2021/11/09 13:47:43;;;;;;;12.10;8.90;;;;;;;10.69;67.35;99546.13;5068574;28;20025;-60
2021/11/09 13:50:12;;;;;;;11.25;8.68;;;;;;;10.67;67.64;99552.44;5071673;28;20558;-60
2021/11/09 13:52:56;;;;;;;;;;;;;;;10.66;68.22;99551.59;5072180;28;20417;-60
2021/11/09 13:55:22;;;;;;;12.73;8.23;;;;;;;10.63;68.22;99557.03;5060169;28;19912;-60
2021/11/09 13:57:48;;;;;;;14.38;8.02;;;;;;;10.60;67.88;99546.06;5064133;28;20027;-60
2021/11/09 14:00:29;;;;;;;13.38;7.85;;;;;;;10.61;68.59;99551.16;5068666;28;20463;-60
2021/11/09 14:03:24;;;;;;;11.93;7.72;;;;;;;10.63;68.81;99553.63;5068393;28;20048;-61
2021/11/09 14:06:04;;;;;;;9.57;6.78;;;;;;;10.38;68.83;99517.38;5074571;28;20043;-60
2021/11/09 14:16:40;;;;;;;12.30;8.02;;;;;;;10.52;69.93;99565.69;5064674;28;20050;-61
2021/11/09 14:19:09;;;;;;;11.52;7.53;;;;;;;10.55;69.32;99570.66;5068920;28;20028;-61
2021/11/09 14:21:40;;;;;;;12.13;8.25;;;;;;;10.61;69.52;99569.34;5064643;28;20089;-60
2021/11/09 14:24:11;;;;;;;12.75;8.32;;;;;;;10.37;70.08;99535.72;5067900;28;20440;-60